Time;durP1;ratioP1;P1;durP2;ratioP2;P2;SDS_P1;SDS_P2;PMS_P1;PMS_P2;Temp;Humidity;BMP_temperature;BMP_pressure;BME280_temperature;BME280_humidity;BME280_pressure;Samples;Min_cycle;Max_cycle;Signal;HPM_P1;HPM_P2
2021/01/16 00:01:53;;;;;;;8.25;6.05;;;4.60;79.80;;;;;;4936804;28;20058;-78
2021/01/16 00:04:19;;;;;;;7.50;5.28;;;4.60;79.80;;;;;;4937768;29;20028;-77
2021/01/16 00:06:44;;;;;;;8.55;5.93;;;4.60;79.80;;;;;;4934487;29;20054;-78
2021/01/16 00:09:10;;;;;;;7.95;5.88;;;4.50;79.70;;;;;;4939219;28;20467;-78
2021/01/16 00:11:36;;;;;;;7.82;5.45;;;4.60;79.80;;;;;;4938684;29;20039;-78
2021/01/16 00:14:02;;;;;;;8.23;5.82;;;4.60;79.70;;;;;;4926920;28;20027;-77
2021/01/16 00:16:27;;;;;;;8.07;5.90;;;4.50;79.70;;;;;;4939255;29;20400;-77
2021/01/16 00:18:53;;;;;;;8.60;6.20;;;4.60;79.80;;;;;;4909371;29;20070;-79
2021/01/16 00:21:19;;;;;;;7.68;6.03;;;4.50;79.70;;;;;;4952948;28;20031;-77
2021/01/16 00:23:44;;;;;;;8.48;6.22;;;4.60;79.80;;;;;;4939750;29;20042;-78
2021/01/16 00:26:10;;;;;;;7.32;5.80;;;4.50;79.70;;;;;;4953622;28;20139;-78
2021/01/16 00:28:36;;;;;;;8.00;6.07;;;4.60;79.80;;;;;;4919766;29;20043;-78
2021/01/16 00:31:03;;;;;;;8.15;6.38;;;4.50;79.70;;;;;;4952912;28;20031;-77
2021/01/16 00:33:34;;;;;;;7.88;6.22;;;4.50;79.70;;;;;;4928524;28;20020;-78
2021/01/16 00:36:02;;;;;;;8.13;5.72;;;4.60;79.80;;;;;;4944923;29;20086;-77
2021/01/16 00:38:30;;;;;;;8.32;5.93;;;4.50;79.70;;;;;;4951705;29;20054;-78
2021/01/16 00:40:57;;;;;;;7.35;5.72;;;4.60;79.70;;;;;;4962874;28;20027;-77
2021/01/16 00:43:23;;;;;;;8.68;5.85;;;4.60;79.80;;;;;;4928669;28;20032;-78
2021/01/16 00:45:50;;;;;;;8.13;5.85;;;4.60;79.80;;;;;;4947284;29;20480;-78
2021/01/16 00:48:18;;;;;;;7.82;5.97;;;4.60;79.80;;;;;;4940631;28;20117;-77
2021/01/16 00:50:47;;;;;;;7.72;5.82;;;4.50;79.70;;;;;;4964519;28;20834;-77
2021/01/16 00:53:14;;;;;;;8.48;6.07;;;4.50;79.70;;;;;;4938695;28;20030;-77
2021/01/16 00:55:55;;;;;;;8.27;6.18;;;4.50;79.70;;;;;;4944543;28;20027;-77
2021/01/16 00:58:21;;;;;;;8.63;6.13;;;4.60;79.80;;;;;;4955807;28;20550;-78
2021/01/16 01:00:54;;;;;;;8.15;5.97;;;4.50;79.70;;;;;;4941330;28;20061;-76
2021/01/16 01:03:25;;;;;;;8.40;6.22;;;4.60;79.80;;;;;;4958397;28;20059;-77
2021/01/16 01:05:51;;;;;;;8.20;6.00;;;4.60;79.80;;;;;;4963193;28;20031;-77
2021/01/16 01:08:25;;;;;;;8.82;5.70;;;4.50;79.80;;;;;;4942568;28;20031;-77
2021/01/16 01:10:51;;;;;;;8.35;6.10;;;4.50;79.80;;;;;;4939917;29;20086;-77
2021/01/16 01:13:17;;;;;;;7.55;5.93;;;4.60;79.70;;;;;;4955840;29;20416;-77
2021/01/16 01:15:42;;;;;;;8.18;5.85;;;4.50;79.70;;;;;;4939758;29;20472;-77
2021/01/16 01:18:08;;;;;;;8.52;6.05;;;4.50;79.80;;;;;;4955505;28;20424;-79
2021/01/16 01:20:34;;;;;;;7.97;5.65;;;4.50;79.70;;;;;;4939621;29;20054;-77
2021/01/16 01:23:01;;;;;;;7.50;5.90;;;4.50;79.90;;;;;;4908107;29;20028;-77
2021/01/16 01:25:27;;;;;;;7.85;5.65;;;4.50;79.80;;;;;;4939787;28;20170;-77
2021/01/16 01:27:57;;;;;;;7.75;6.00;;;4.50;79.80;;;;;;4955737;29;20115;-77
2021/01/16 01:30:25;;;;;;;8.10;5.88;;;4.50;79.80;;;;;;4931162;28;20055;-77
2021/01/16 01:32:52;;;;;;;7.32;5.20;;;4.60;79.80;;;;;;4938934;29;20054;-77
2021/01/16 01:35:19;;;;;;;8.27;5.50;;;4.50;79.80;;;;;;4955441;29;20118;-78
2021/01/16 01:37:47;;;;;;;7.18;5.75;;;4.50;79.80;;;;;;4954514;29;20030;-77
2021/01/16 01:40:15;;;;;;;7.60;5.55;;;4.50;79.80;;;;;;4954572;29;20022;-80
2021/01/16 01:42:45;;;;;;;7.95;5.78;;;4.50;79.80;;;;;;4938489;28;20016;-78
2021/01/16 01:45:11;;;;;;;7.90;5.70;;;4.50;79.80;;;;;;4965284;28;20117;-77
2021/01/16 01:47:41;;;;;;;7.75;5.75;;;4.50;79.70;;;;;;4940010;29;20047;-77
2021/01/16 01:50:10;;;;;;;7.32;5.60;;;4.50;79.80;;;;;;4958259;28;20459;-77
2021/01/16 01:52:36;;;;;;;7.53;5.50;;;4.50;79.70;;;;;;4957946;28;20158;-78
2021/01/16 01:55:05;;;;;;;8.23;5.55;;;4.50;79.70;;;;;;4935945;29;20473;-77
2021/01/16 01:57:36;;;;;;;7.55;5.65;;;4.50;79.70;;;;;;4953671;28;20051;-78
2021/01/16 02:00:08;;;;;;;7.68;5.63;;;4.50;79.80;;;;;;4959744;28;20023;-77
2021/01/16 02:02:43;;;;;;;9.27;6.13;;;4.50;79.80;;;;;;4950485;28;20044;-77
2021/01/16 02:05:11;;;;;;;7.85;5.53;;;4.50;79.70;;;;;;4942987;29;20107;-77
2021/01/16 02:07:37;;;;;;;7.43;5.20;;;4.50;79.70;;;;;;4911483;29;20134;-78
2021/01/16 02:10:19;;;;;;;7.93;5.78;;;4.50;79.80;;;;;;4952693;28;20031;-77
2021/01/16 02:12:45;;;;;;;7.82;5.68;;;4.50;79.80;;;;;;4937206;29;20455;-76
2021/01/16 02:15:22;;;;;;;7.05;5.10;;;4.50;79.70;;;;;;4929431;29;20101;-77
2021/01/16 02:17:54;;;;;;;7.30;5.22;;;4.50;79.80;;;;;;4917854;29;20027;-77
2021/01/16 02:20:29;;;;;;;7.70;5.70;;;4.50;79.80;;;;;;4947742;29;20028;-78
2021/01/16 02:23:07;;;;;;;;;;;4.50;79.80;;;;;;4941294;29;20024;-77
2021/01/16 02:25:42;;;;;;;6.97;4.93;;;4.50;79.70;;;;;;4932078;29;19910;-77
2021/01/16 02:28:19;;;;;;;7.20;5.78;;;4.50;79.50;;;;;;4935080;29;20062;-77
2021/01/16 02:30:45;;;;;;;6.97;4.93;;;4.50;79.60;;;;;;4938261;29;20027;-77
2021/01/16 02:33:15;;;;;;;8.07;5.38;;;4.50;79.70;;;;;;4903747;29;20480;-77
2021/01/16 02:36:11;;;;;;;6.82;5.32;;;4.50;79.80;;;;;;4944149;29;20480;-77
2021/01/16 02:38:51;;;;;;;7.65;5.65;;;4.40;79.80;;;;;;4939218;29;20024;-78
2021/01/16 02:41:23;;;;;;;7.47;5.13;;;4.50;79.80;;;;;;4935544;29;20456;-77
2021/01/16 02:44:01;;;;;;;6.72;5.05;;;4.50;79.80;;;;;;4939599;29;20066;-78
2021/01/16 02:46:42;;;;;;;6.45;4.70;;;4.50;79.80;;;;;;4946292;28;20035;-78
2021/01/16 02:49:29;;;;;;;5.47;4.20;;;4.50;79.80;;;;;;4946193;29;20035;-78
2021/01/16 02:52:06;;;;;;;6.07;4.53;;;4.50;79.80;;;;;;4925428;29;20060;-77
2021/01/16 02:54:38;;;;;;;6.90;5.13;;;4.50;79.80;;;;;;4929448;29;20395;-78
2021/01/16 02:57:05;;;;;;;6.55;4.68;;;4.50;79.80;;;;;;4930043;29;20031;-78
2021/01/16 02:59:39;;;;;;;6.85;4.93;;;4.40;79.70;;;;;;4942067;28;20023;-77
2021/01/16 03:02:07;;;;;;;6.95;4.78;;;4.50;79.90;;;;;;4944330;28;20062;-77
2021/01/16 03:04:34;;;;;;;7.30;5.47;;;4.50;79.80;;;;;;4932730;29;20031;-78
2021/01/16 03:07:00;;;;;;;7.22;5.10;;;4.50;79.80;;;;;;4926910;29;20151;-78
2021/01/16 03:09:29;;;;;;;7.15;4.90;;;4.50;79.80;;;;;;4947651;29;20496;-77
2021/01/16 03:11:58;;;;;;;6.50;4.82;;;4.40;79.80;;;;;;4947401;28;20028;-78
2021/01/16 03:14:27;;;;;;;7.57;5.50;;;4.50;79.80;;;;;;4934069;29;20414;-79
2021/01/16 03:17:13;;;;;;;7.25;5.28;;;4.50;79.80;;;;;;4920086;29;20126;-77
2021/01/16 03:19:41;;;;;;;;;;;4.50;79.90;;;;;;4918583;29;20091;-78
2021/01/16 03:22:28;;;;;;;6.85;4.53;;;4.40;79.70;;;;;;4921838;29;20410;-78
2021/01/16 03:24:56;;;;;;;6.75;4.85;;;4.50;79.70;;;;;;4912205;29;20105;-78
2021/01/16 03:27:23;;;;;;;6.10;4.70;;;4.50;79.70;;;;;;4932671;29;20432;-77
2021/01/16 03:29:49;;;;;;;7.32;5.28;;;4.50;79.80;;;;;;4919119;29;20114;-77
2021/01/16 03:32:16;;;;;;;7.72;5.30;;;4.50;79.80;;;;;;4922593;29;20190;-78
2021/01/16 03:34:43;;;;;;;7.22;5.30;;;4.50;79.80;;;;;;4927734;29;20038;-78
2021/01/16 03:37:10;;;;;;;7.43;4.88;;;4.50;79.80;;;;;;4924312;29;20464;-77
2021/01/16 03:39:37;;;;;;;7.80;5.78;;;4.50;80.50;;;;;;4935867;29;20032;-78
2021/01/16 03:42:04;;;;;;;7.55;5.75;;;4.40;79.80;;;;;;4924839;29;20054;-77
2021/01/16 03:44:30;;;;;;;7.35;5.25;;;4.40;80.40;;;;;;4899678;29;20032;-77
2021/01/16 03:46:56;;;;;;;6.75;5.10;;;4.50;79.80;;;;;;4934746;29;20046;-77
2021/01/16 03:49:22;;;;;;;7.55;6.13;;;4.50;79.80;;;;;;4919123;29;20156;-77
2021/01/16 03:51:48;;;;;;;7.35;5.53;;;4.50;79.80;;;;;;4933075;29;20024;-78
2021/01/16 03:54:13;;;;;;;7.43;5.03;;;4.50;79.80;;;;;;4921942;29;20027;-77
2021/01/16 03:56:39;;;;;;;7.03;5.45;;;4.50;79.80;;;;;;4929230;29;20086;-77
2021/01/16 03:59:05;;;;;;;7.00;5.03;;;4.50;79.80;;;;;;4908225;29;20031;-77
2021/01/16 04:01:35;;;;;;;7.57;5.40;;;4.50;79.90;;;;;;4934048;28;20113;-77
2021/01/16 04:04:01;;;;;;;7.90;5.85;;;4.50;79.80;;;;;;4971468;28;20039;-78
2021/01/16 04:06:27;;;;;;;7.18;5.50;;;4.50;79.80;;;;;;4937832;29;20035;-77
2021/01/16 04:08:53;;;;;;;7.10;5.43;;;4.50;79.80;;;;;;4937772;28;20045;-78
2021/01/16 04:11:19;;;;;;;7.05;5.20;;;4.50;79.90;;;;;;4933967;29;20027;-77
2021/01/16 04:13:44;;;;;;;7.13;5.20;;;4.40;79.80;;;;;;4974079;28;20026;-79
2021/01/16 04:16:11;;;;;;;7.50;5.30;;;4.50;79.80;;;;;;4939638;28;20038;-78
2021/01/16 04:18:36;;;;;;;7.57;5.28;;;4.40;79.80;;;;;;4960916;28;20066;-77
2021/01/16 04:21:03;;;;;;;7.85;5.82;;;4.50;79.90;;;;;;4932018;28;20059;-77
2021/01/16 04:23:29;;;;;;;7.65;5.82;;;4.50;79.80;;;;;;4939578;28;20031;-77
2021/01/16 04:25:55;;;;;;;7.22;5.40;;;4.50;79.80;;;;;;4934270;28;20027;-77
2021/01/16 04:28:21;;;;;;;7.43;5.68;;;4.50;79.80;;;;;;4940187;28;20047;-77
2021/01/16 04:30:46;;;;;;;7.85;5.65;;;4.50;79.80;;;;;;4939016;28;20034;-78
2021/01/16 04:33:13;;;;;;;7.80;5.40;;;4.50;79.80;;;;;;4938446;29;20039;-78
2021/01/16 04:35:39;;;;;;;7.88;6.07;;;4.50;79.80;;;;;;4954026;28;20459;-77
2021/01/16 04:38:05;;;;;;;8.10;6.10;;;4.40;79.70;;;;;;4957303;28;20030;-77
2021/01/16 04:40:31;;;;;;;7.65;5.35;;;4.40;79.70;;;;;;4949101;28;20039;-77
2021/01/16 04:42:59;;;;;;;6.32;4.78;;;4.50;79.80;;;;;;4959022;28;20337;-77
2021/01/16 04:45:26;;;;;;;6.63;5.15;;;4.50;79.80;;;;;;4959166;28;20471;-76
2021/01/16 04:47:58;;;;;;;8.23;5.82;;;4.50;79.80;;;;;;4942952;28;20045;-77
2021/01/16 04:50:29;;;;;;;8.18;5.57;;;4.50;79.80;;;;;;4942719;28;20121;-77
2021/01/16 04:53:04;;;;;;;7.32;5.72;;;4.50;79.80;;;;;;4969453;28;20061;-77
2021/01/16 04:55:32;;;;;;;8.10;5.90;;;4.50;79.80;;;;;;4962621;28;20027;-77
2021/01/16 04:58:09;;;;;;;7.72;5.20;;;4.40;79.70;;;;;;4976087;28;20041;-77
2021/01/16 05:00:37;;;;;;;7.10;5.13;;;4.50;79.80;;;;;;4955343;28;20031;-77
2021/01/16 05:03:07;;;;;;;7.15;5.47;;;4.40;79.70;;;;;;4946646;29;20086;-77
2021/01/16 05:05:39;;;;;;;8.13;5.75;;;4.50;79.80;;;;;;4956157;28;20077;-77
2021/01/16 05:08:06;;;;;;;8.30;5.90;;;4.40;79.70;;;;;;4941964;28;20456;-77
2021/01/16 05:10:54;;;;;;;6.88;5.03;;;4.50;79.80;;;;;;4927801;28;20062;-77
2021/01/16 05:13:29;;;;;;;7.13;5.50;;;4.40;79.90;;;;;;4965094;28;20018;-78
2021/01/16 05:15:58;;;;;;;7.13;5.10;;;4.40;79.70;;;;;;4951022;28;20026;-76
2021/01/16 05:18:25;;;;;;;6.90;4.85;;;4.40;79.70;;;;;;4953813;28;20034;-77
2021/01/16 05:20:51;;;;;;;7.18;5.50;;;4.40;79.70;;;;;;4943855;28;20069;-78
2021/01/16 05:23:17;;;;;;;7.40;5.63;;;4.40;79.80;;;;;;4976006;28;20031;-78
2021/01/16 05:25:51;;;;;;;7.57;5.72;;;4.40;79.80;;;;;;4960734;28;20031;-78
2021/01/16 05:28:19;;;;;;;6.97;5.47;;;4.50;79.80;;;;;;4962772;28;20081;-78
2021/01/16 05:30:58;;;;;;;7.10;5.65;;;4.40;79.80;;;;;;4942626;28;20513;-78
2021/01/16 05:33:29;;;;;;;7.82;5.72;;;4.40;79.80;;;;;;4960957;28;20376;-78
2021/01/16 05:35:58;;;;;;;7.18;5.25;;;4.40;79.80;;;;;;4956423;28;20035;-78
2021/01/16 05:38:35;;;;;;;7.50;5.35;;;4.40;79.70;;;;;;4959371;28;20027;-77
2021/01/16 05:41:05;;;;;;;7.55;5.53;;;4.40;79.80;;;;;;4942186;28;20027;-77
2021/01/16 05:43:32;;;;;;;7.93;5.78;;;4.40;79.70;;;;;;4941494;28;20117;-78
2021/01/16 05:46:00;;;;;;;8.13;5.47;;;4.40;79.70;;;;;;4942378;28;20126;-77
2021/01/16 05:48:27;;;;;;;8.30;5.90;;;4.40;79.80;;;;;;4966182;28;20045;-78
2021/01/16 05:50:56;;;;;;;7.90;5.85;;;4.40;79.80;;;;;;4966835;28;20034;-78
2021/01/16 05:53:24;;;;;;;8.50;5.60;;;4.40;79.80;;;;;;4943560;28;20077;-78
2021/01/16 05:55:50;;;;;;;8.10;6.10;;;4.40;79.80;;;;;;4963753;28;20054;-76
2021/01/16 05:58:19;;;;;;;7.35;5.57;;;4.40;79.70;;;;;;4941209;28;20035;-77
2021/01/16 06:00:49;;;;;;;8.15;5.70;;;4.40;79.80;;;;;;4956840;28;20019;-77
2021/01/16 06:03:17;;;;;;;7.90;6.07;;;4.40;79.80;;;;;;4923180;29;20058;-79
2021/01/16 06:05:51;;;;;;;7.50;5.63;;;4.40;79.80;;;;;;4933904;29;20103;-77
2021/01/16 06:08:20;;;;;;;8.25;5.60;;;4.40;79.80;;;;;;4936349;28;20047;-77
2021/01/16 06:10:54;;;;;;;7.53;5.35;;;4.40;79.80;;;;;;4926865;29;20114;-76
2021/01/16 06:13:23;;;;;;;7.22;5.88;;;4.40;79.80;;;;;;4939060;29;20063;-77
2021/01/16 06:15:54;;;;;;;7.22;5.85;;;4.40;79.70;;;;;;4923666;29;20051;-77
2021/01/16 06:18:35;;;;;;;8.05;6.05;;;4.40;79.70;;;;;;4925774;29;20472;-76
2021/01/16 06:21:02;;;;;;;7.60;5.55;;;4.40;79.80;;;;;;4940392;29;20035;-77
2021/01/16 06:23:30;;;;;;;7.45;5.78;;;4.40;79.70;;;;;;4942483;29;20036;-76
2021/01/16 06:25:57;;;;;;;9.32;6.32;;;4.40;79.70;;;;;;4921498;29;20042;-78
2021/01/16 06:28:30;;;;;;;8.02;5.80;;;4.40;79.70;;;;;;4906351;29;20127;-76
2021/01/16 06:30:58;;;;;;;7.70;5.68;;;4.40;79.80;;;;;;4933018;29;20030;-78
2021/01/16 06:33:27;;;;;;;8.13;5.97;;;4.50;79.80;;;;;;4919320;29;20032;-76
2021/01/16 06:36:01;;;;;;;7.45;5.43;;;4.40;79.80;;;;;;4937969;29;20034;-78
2021/01/16 06:38:36;;;;;;;7.72;6.15;;;4.40;79.80;;;;;;4929532;29;20036;-78
2021/01/16 06:41:17;;;;;;;7.00;5.80;;;4.40;79.80;;;;;;4916169;29;20050;-78
2021/01/16 06:43:45;;;;;;;10.60;5.90;;;4.40;79.80;;;;;;4907517;29;20035;-77
2021/01/16 06:46:15;;;;;;;7.07;5.22;;;4.40;79.70;;;;;;4939391;29;20468;-78
2021/01/16 06:48:46;;;;;;;7.45;5.35;;;4.40;79.80;;;;;;4927233;29;20488;-78
2021/01/16 06:51:22;;;;;;;7.95;5.90;;;4.40;79.80;;;;;;4942308;29;20027;-76
2021/01/16 06:53:49;;;;;;;7.93;5.78;;;4.40;79.80;;;;;;4930601;29;20035;-76
2021/01/16 06:56:24;;;;;;;8.20;5.82;;;4.40;79.80;;;;;;4925496;29;20027;-75
2021/01/16 06:58:53;;;;;;;7.50;5.50;;;4.40;79.80;;;;;;4921539;29;20477;-76
2021/01/16 07:01:27;;;;;;;7.82;5.70;;;4.40;79.80;;;;;;4928256;28;20031;-76
2021/01/16 07:03:54;;;;;;;6.90;5.17;;;4.40;80.40;;;;;;4967063;28;20511;-76
2021/01/16 07:06:19;;;;;;;7.45;6.03;;;4.40;79.70;;;;;;4972964;28;20022;-77
2021/01/16 07:08:47;;;;;;;7.55;5.70;;;4.40;79.70;;;;;;4925127;28;20046;-76
2021/01/16 07:11:12;;;;;;;7.57;5.53;;;4.40;79.70;;;;;;4947151;28;20030;-76
2021/01/16 07:13:41;;;;;;;8.13;5.47;;;4.40;79.70;;;;;;4945904;28;20399;-78
2021/01/16 07:16:08;;;;;;;8.30;5.95;;;4.40;79.70;;;;;;4947155;28;20054;-77
2021/01/16 07:18:35;;;;;;;7.38;5.70;;;4.40;79.80;;;;;;4953842;28;20035;-77
2021/01/16 07:21:01;;;;;;;8.02;6.25;;;4.50;79.80;;;;;;4945572;28;20074;-79
2021/01/16 07:23:28;;;;;;;6.65;5.28;;;4.40;79.70;;;;;;4940215;28;20660;-77
2021/01/16 07:25:54;;;;;;;7.30;5.80;;;4.50;79.80;;;;;;4966628;28;20035;-77
2021/01/16 07:28:21;;;;;;;8.68;6.30;;;4.50;79.80;;;;;;4941303;28;20053;-77
2021/01/16 07:30:49;;;;;;;7.82;5.60;;;4.40;79.70;;;;;;4978001;28;20033;-77
2021/01/16 07:33:15;;;;;;;7.45;5.85;;;4.50;79.80;;;;;;4936056;29;20015;-76
2021/01/16 07:35:51;;;;;;;7.90;6.20;;;4.40;79.70;;;;;;4945427;28;20038;-76
2021/01/16 07:38:20;;;;;;;7.95;6.15;;;4.50;79.80;;;;;;4939546;28;20471;-77
2021/01/16 07:40:47;;;;;;;7.53;5.85;;;4.40;79.70;;;;;;4937416;29;20484;-78
2021/01/16 07:43:38;;;;;;;8.20;5.95;;;4.40;79.70;;;;;;4936967;28;20026;-77
2021/01/16 07:46:10;;;;;;;7.80;5.35;;;4.40;79.80;;;;;;4955599;28;20030;-77
2021/01/16 07:48:48;;;;;;;7.55;5.70;;;4.40;79.70;;;;;;4974042;28;20038;-77
2021/01/16 07:51:17;;;;;;;7.28;5.68;;;4.40;79.80;;;;;;4957682;28;20031;-77
2021/01/16 07:53:45;;;;;;;8.15;6.10;;;4.40;79.70;;;;;;4942547;28;20074;-77
2021/01/16 07:56:21;;;;;;;6.85;5.40;;;4.40;79.70;;;;;;4973103;28;20114;-79
2021/01/16 07:59:06;;;;;;;;;;;4.40;79.80;;;;;;4956120;28;20435;-77
2021/01/16 08:01:41;;;;;;;7.25;5.40;;;4.40;79.70;;;;;;4939760;28;20020;-77
2021/01/16 08:04:07;;;;;;;7.15;5.18;;;4.40;79.40;;;;;;4971790;28;20486;-77
2021/01/16 08:06:35;;;;;;;7.68;5.78;;;4.40;79.50;;;;;;4970962;28;20115;-77
2021/01/16 08:09:05;;;;;;;8.27;6.20;;;4.40;79.70;;;;;;4967674;28;20609;-77
2021/01/16 08:11:33;;;;;;;8.07;5.85;;;4.40;79.70;;;;;;4944753;28;20776;-76
2021/01/16 08:14:06;;;;;;;7.85;5.82;;;4.40;79.70;;;;;;4959388;28;20050;-76
2021/01/16 08:16:33;;;;;;;8.13;5.95;;;4.40;79.80;;;;;;4945576;28;20093;-77
2021/01/16 08:19:14;;;;;;;8.68;6.18;;;4.40;79.80;;;;;;4982682;28;20038;-76
2021/01/16 08:21:57;;;;;;;7.68;5.63;;;4.40;79.80;;;;;;4968187;28;20144;-76
2021/01/16 08:24:27;;;;;;;8.38;6.22;;;4.40;79.80;;;;;;4943162;28;20038;-75
2021/01/16 08:27:01;;;;;;;7.47;5.82;;;4.50;79.80;;;;;;4959521;28;20027;-76
2021/01/16 08:29:29;;;;;;;7.50;5.68;;;4.40;79.80;;;;;;4942981;28;20039;-76
2021/01/16 08:32:09;;;;;;;7.32;5.53;;;4.40;79.70;;;;;;4931627;28;20522;-76
2021/01/16 08:34:57;;;;;;;7.18;5.45;;;4.40;79.80;;;;;;4946353;28;20030;-76
2021/01/16 08:37:37;;;;;;;8.98;5.88;;;4.40;79.90;;;;;;4985130;28;20034;-76
2021/01/16 08:40:07;;;;;;;7.30;5.60;;;4.40;79.80;;;;;;4956371;28;20027;-76
2021/01/16 08:42:34;;;;;;;7.95;5.82;;;4.40;79.80;;;;;;4943660;28;20027;-76
2021/01/16 08:45:02;;;;;;;8.10;6.50;;;4.40;79.80;;;;;;4970677;28;20081;-76
2021/01/16 08:47:28;;;;;;;8.20;5.88;;;4.40;79.80;;;;;;4946860;28;20383;-76
2021/01/16 08:50:12;;;;;;;7.63;6.07;;;4.50;79.80;;;;;;4943108;28;20594;-78
2021/01/16 08:52:37;;;;;;;7.68;5.65;;;4.40;79.90;;;;;;4942974;28;20063;-77
2021/01/16 08:55:05;;;;;;;7.47;5.70;;;4.50;79.80;;;;;;4940669;28;20411;-77
2021/01/16 08:57:32;;;;;;;7.45;5.72;;;4.40;79.70;;;;;;4932234;28;20471;-76
2021/01/16 09:00:16;;;;;;;7.93;6.00;;;4.50;79.80;;;;;;4957860;28;20027;-76
2021/01/16 09:02:43;;;;;;;8.65;6.20;;;4.50;79.90;;;;;;4951328;28;20075;-77
2021/01/16 09:05:25;;;;;;;8.45;5.90;;;4.50;79.80;;;;;;4960216;28;20163;-77
2021/01/16 09:07:53;;;;;;;8.63;6.03;;;4.50;79.90;;;;;;4939229;28;20051;-77
2021/01/16 09:10:26;;;;;;;8.80;6.47;;;4.50;79.70;;;;;;4927196;28;20030;-77
2021/01/16 09:12:52;;;;;;;7.95;6.18;;;4.50;79.80;;;;;;4961196;28;20027;-77
2021/01/16 09:15:21;;;;;;;8.20;6.15;;;4.50;79.80;;;;;;4939982;28;20034;-77
2021/01/16 09:18:12;;;;;;;7.88;5.97;;;4.50;79.80;;;;;;4955631;28;20035;-76
2021/01/16 09:20:46;;;;;;;7.80;6.07;;;4.50;79.90;;;;;;4978655;28;20102;-76
2021/01/16 09:23:24;;;;;;;7.88;5.70;;;4.50;79.70;;;;;;4958452;28;20365;-77
2021/01/16 09:26:10;;;;;;;7.82;6.43;;;4.50;79.80;;;;;;4959646;28;20383;-76
2021/01/16 09:28:48;;;;;;;8.68;6.18;;;4.50;79.80;;;;;;4957146;28;20035;-76
2021/01/16 09:31:41;;;;;;;8.00;6.20;;;4.50;79.80;;;;;;4970745;28;20034;-76
2021/01/16 09:34:12;;;;;;;8.68;5.97;;;4.50;79.90;;;;;;4965265;28;20499;-77
2021/01/16 09:36:46;;;;;;;8.43;6.10;;;4.50;79.70;;;;;;4944995;28;20019;-75
2021/01/16 09:39:16;;;;;;;8.30;6.00;;;4.60;79.80;;;;;;4976127;28;20077;-76
2021/01/16 09:41:43;;;;;;;8.80;6.50;;;4.60;79.80;;;;;;4956929;28;20031;-75
2021/01/16 09:44:08;;;;;;;7.25;5.47;;;4.60;79.80;;;;;;4957374;28;20109;-77
2021/01/16 09:46:39;;;;;;;7.68;6.25;;;4.60;79.80;;;;;;4974296;28;20172;-77
2021/01/16 09:49:07;;;;;;;8.40;6.25;;;4.60;79.90;;;;;;4957206;28;20439;-78
2021/01/16 09:51:34;;;;;;;8.20;6.57;;;4.60;79.80;;;;;;4936959;28;20462;-76
2021/01/16 09:54:10;;;;;;;9.20;6.18;;;4.60;79.80;;;;;;4956773;28;20035;-76
2021/01/16 09:56:44;;;;;;;8.63;6.57;;;4.60;79.80;;;;;;4954538;28;20033;-76
2021/01/16 09:59:29;;;;;;;8.20;5.95;;;4.60;79.90;;;;;;4953957;28;20035;-76
2021/01/16 10:02:13;;;;;;;8.30;6.32;;;4.60;79.80;;;;;;4946723;28;20062;-77
2021/01/16 10:04:44;;;;;;;7.85;5.95;;;4.60;79.80;;;;;;4942324;28;20106;-76
2021/01/16 10:07:16;;;;;;;8.82;6.40;;;4.60;79.70;;;;;;4986681;28;20472;-76
2021/01/16 10:09:49;;;;;;;8.30;6.13;;;4.60;79.80;;;;;;4977297;28;20047;-76
2021/01/16 10:12:33;;;;;;;9.13;6.82;;;4.60;79.80;;;;;;4978758;28;20023;-77
2021/01/16 10:15:05;;;;;;;8.90;6.50;;;4.60;79.80;;;;;;4976831;28;20084;-78
2021/01/16 10:17:33;;;;;;;9.25;6.07;;;4.70;79.80;;;;;;4956212;28;20034;-76
2021/01/16 10:20:06;;;;;;;7.93;5.65;;;4.60;79.80;;;;;;4939732;28;20077;-76
2021/01/16 10:22:34;;;;;;;8.85;6.47;;;4.70;79.80;;;;;;4941148;28;20046;-77
2021/01/16 10:25:01;;;;;;;7.97;6.50;;;4.70;79.80;;;;;;4944552;28;20447;-77
2021/01/16 10:28:06;;;;;;;9.15;6.57;;;4.70;79.90;;;;;;4973378;28;20034;-77
2021/01/16 10:30:33;;;;;;;8.25;6.18;;;4.60;80.00;;;;;;4884111;29;20044;-77
2021/01/16 10:33:00;;;;;;;9.88;7.28;;;4.70;79.70;;;;;;4883514;29;20036;-77
2021/01/16 10:35:29;;;;;;;8.18;6.40;;;4.70;79.80;;;;;;4912794;28;20050;-77
2021/01/16 10:38:00;;;;;;;8.77;7.00;;;4.70;79.80;;;;;;4941575;28;20547;-77
2021/01/16 10:40:26;;;;;;;9.35;7.05;;;4.70;79.80;;;;;;4977437;28;20054;-77
2021/01/16 10:42:55;;;;;;;8.88;6.57;;;4.70;79.80;;;;;;4937752;28;20028;-77
2021/01/16 10:45:27;;;;;;;9.07;6.50;;;4.70;79.80;;;;;;4949201;28;20035;-78
2021/01/16 10:47:55;;;;;;;8.98;5.80;;;4.70;79.80;;;;;;4961071;28;20937;-77
2021/01/16 10:50:41;;;;;;;8.63;6.43;;;4.70;79.80;;;;;;4972393;28;20361;-77
2021/01/16 10:53:08;;;;;;;8.55;6.50;;;4.70;79.90;;;;;;4940675;28;20107;-78
2021/01/16 10:55:54;;;;;;;9.45;6.97;;;4.70;79.70;;;;;;4932926;28;20066;-76
2021/01/16 10:58:29;;;;;;;8.85;6.82;;;4.70;79.90;;;;;;4953963;28;20042;-80
2021/01/16 11:00:59;;;;;;;9.10;6.45;;;4.80;79.80;;;;;;4956053;28;20042;-76
2021/01/16 11:03:30;;;;;;;9.18;7.25;;;4.80;79.80;;;;;;4939874;28;20047;-76
2021/01/16 11:06:03;;;;;;;9.00;6.60;;;4.80;79.80;;;;;;4955998;28;20121;-78
2021/01/16 11:08:31;;;;;;;10.10;7.00;;;4.80;79.80;;;;;;4948977;28;20066;-77
2021/01/16 11:10:57;;;;;;;9.32;6.90;;;4.80;79.80;;;;;;4956989;28;20026;-78
2021/01/16 11:13:28;;;;;;;9.70;6.55;;;4.80;79.80;;;;;;4955728;28;20061;-78
2021/01/16 11:15:57;;;;;;;10.10;7.03;;;4.80;79.80;;;;;;4979282;28;20474;-78
2021/01/16 11:18:31;;;;;;;9.13;6.70;;;4.80;79.80;;;;;;4956308;28;20035;-78
2021/01/16 11:21:03;;;;;;;10.95;7.00;;;4.90;79.90;;;;;;4955574;28;20038;-78
2021/01/16 11:23:31;;;;;;;9.65;7.22;;;4.90;79.80;;;;;;4962127;28;20022;-78
2021/01/16 11:26:05;;;;;;;8.70;6.32;;;4.90;79.80;;;;;;4956126;28;20034;-77
2021/01/16 11:28:50;;;;;;;9.57;7.30;;;4.90;79.80;;;;;;4933919;28;20035;-79
2021/01/16 11:31:32;;;;;;;10.05;7.45;;;4.90;79.80;;;;;;4953829;28;20121;-78
2021/01/16 11:34:18;;;;;;;9.13;6.85;;;4.90;79.80;;;;;;4951537;28;20459;-79
2021/01/16 11:36:59;;;;;;;8.77;6.32;;;4.90;79.80;;;;;;4940342;28;20023;-81
2021/01/16 11:39:53;;;;;;;8.60;6.35;;;4.90;79.70;;;;;;4949669;28;20035;-77
2021/01/16 11:42:20;;;;;;;9.13;6.60;;;4.90;79.80;;;;;;4953674;28;20371;-77
2021/01/16 11:44:54;;;;;;;8.73;5.97;;;4.90;79.70;;;;;;4939187;28;20035;-77
2021/01/16 11:47:21;;;;;;;8.50;6.50;;;5.00;79.80;;;;;;4939925;28;20059;-77
2021/01/16 11:49:47;;;;;;;9.20;6.70;;;5.00;79.80;;;;;;4955284;28;20035;-78
2021/01/16 11:52:13;;;;;;;10.50;6.95;;;5.00;79.80;;;;;;4955542;28;20414;-77
2021/01/16 11:54:39;;;;;;;9.02;6.43;;;5.00;79.80;;;;;;4955785;28;20171;-77
2021/01/16 11:57:09;;;;;;;8.98;6.60;;;5.00;79.70;;;;;;4955795;28;20031;-77
2021/01/16 11:59:36;;;;;;;9.38;6.88;;;5.00;79.70;;;;;;4939331;28;20126;-77
2021/01/16 12:02:03;;;;;;;8.13;6.45;;;5.00;79.70;;;;;;4939374;28;20075;-77
2021/01/16 12:04:29;;;;;;;8.57;5.85;;;5.00;79.70;;;;;;4955768;28;20031;-77
2021/01/16 12:07:00;;;;;;;8.23;6.15;;;5.10;79.70;;;;;;4935315;28;20562;-78
2021/01/16 12:09:28;;;;;;;9.02;6.43;;;5.10;79.70;;;;;;4955916;28;20030;-77
2021/01/16 12:11:54;;;;;;;9.23;7.10;;;5.10;79.70;;;;;;4939589;28;20118;-77
2021/01/16 12:14:20;;;;;;;9.95;6.65;;;5.10;79.60;;;;;;4973124;28;20118;-76
2021/01/16 12:16:47;;;;;;;8.70;6.70;;;5.10;79.60;;;;;;4955352;28;20486;-76
2021/01/16 12:19:15;;;;;;;8.35;6.43;;;5.10;79.60;;;;;;4973446;28;20062;-77
2021/01/16 12:21:46;;;;;;;7.57;5.72;;;5.10;79.60;;;;;;4954905;28;20054;-77
2021/01/16 12:24:14;;;;;;;8.38;5.95;;;5.10;79.60;;;;;;4939267;28;20038;-77
2021/01/16 12:26:50;;;;;;;8.13;6.13;;;5.20;79.70;;;;;;4960768;28;20068;-76
2021/01/16 12:29:31;;;;;;;9.88;6.72;;;5.20;79.70;;;;;;4961297;28;20031;-77
2021/01/16 12:32:04;;;;;;;8.25;5.88;;;5.20;79.70;;;;;;4957250;28;20031;-77
2021/01/16 12:34:30;;;;;;;8.55;6.00;;;5.20;79.60;;;;;;4971624;28;20029;-77
2021/01/16 12:36:56;;;;;;;8.40;6.22;;;5.20;79.60;;;;;;4971882;28;20027;-78
2021/01/16 12:39:22;;;;;;;8.90;6.28;;;5.20;79.60;;;;;;4952607;28;20042;-77
2021/01/16 12:41:49;;;;;;;8.65;6.35;;;5.20;79.60;;;;;;4939088;28;20380;-78
2021/01/16 12:44:22;;;;;;;7.95;5.78;;;5.20;79.70;;;;;;4954833;28;20027;-77
2021/01/16 12:46:52;;;;;;;8.10;6.68;;;5.20;79.70;;;;;;4954600;28;20132;-78
2021/01/16 12:49:19;;;;;;;7.90;5.78;;;5.20;79.60;;;;;;4940763;28;20036;-77
2021/01/16 12:51:48;;;;;;;6.88;5.25;;;5.20;79.60;;;;;;4975043;28;20026;-77
2021/01/16 12:54:18;;;;;;;8.35;6.50;;;5.30;79.70;;;;;;4967245;28;20031;-76
2021/01/16 12:56:48;;;;;;;7.82;6.00;;;5.30;79.70;;;;;;4958150;28;20027;-78
2021/01/16 12:59:15;;;;;;;7.65;5.75;;;5.30;79.60;;;;;;4941980;28;20027;-77
2021/01/16 13:01:51;;;;;;;8.77;5.95;;;5.30;79.60;;;;;;4925967;28;20133;-77
2021/01/16 13:04:18;;;;;;;8.60;5.85;;;5.30;79.70;;;;;;4942713;28;20189;-79
2021/01/16 13:06:44;;;;;;;9.05;5.70;;;5.30;79.60;;;;;;4958354;28;20514;-78
2021/01/16 13:09:13;;;;;;;7.50;5.55;;;5.30;79.60;;;;;;4958016;28;20406;-78
2021/01/16 13:11:39;;;;;;;8.20;5.70;;;5.30;79.60;;;;;;4942032;28;20031;-77
2021/01/16 13:14:05;;;;;;;8.27;6.22;;;5.40;79.60;;;;;;4921498;29;20059;-78
2021/01/16 13:16:44;;;;;;;7.95;5.78;;;5.40;79.60;;;;;;4942653;28;20499;-77